sensor_id;sensor_type;location;lat;lon;timestamp;P1;durP1;ratioP1;P2;durP2;ratioP2
43933;SDS011;59081;42.706;23.306;2023-05-16T00:01:46;18.38;;;12.80;;
43933;SDS011;59081;42.706;23.306;2023-05-16T00:04:11;19.27;;;13.70;;
43933;SDS011;59081;42.706;23.306;2023-05-16T00:06:37;16.73;;;13.60;;
43933;SDS011;59081;42.706;23.306;2023-05-16T00:09:02;20.70;;;12.60;;
43933;SDS011;59081;42.706;23.306;2023-05-16T00:11:28;21.35;;;13.60;;
43933;SDS011;59081;42.706;23.306;2023-05-16T00:13:53;19.70;;;14.65;;
43933;SDS011;59081;42.706;23.306;2023-05-16T00:16:18;24.23;;;15.93;;
43933;SDS011;59081;42.706;23.306;2023-05-16T00:18:45;17.08;;;14.88;;
43933;SDS011;59081;42.706;23.306;2023-05-16T00:21:12;26.40;;;14.00;;
43933;SDS011;59081;42.706;23.306;2023-05-16T00:23:37;20.65;;;14.68;;
43933;SDS011;59081;42.706;23.306;2023-05-16T00:26:03;21.38;;;15.45;;
43933;SDS011;59081;42.706;23.306;2023-05-16T00:28:29;20.98;;;14.82;;
43933;SDS011;59081;42.706;23.306;2023-05-16T00:30:56;21.38;;;14.82;;
43933;SDS011;59081;42.706;23.306;2023-05-16T00:33:21;23.23;;;15.98;;
43933;SDS011;59081;42.706;23.306;2023-05-16T00:35:47;19.85;;;14.25;;
43933;SDS011;59081;42.706;23.306;2023-05-16T00:38:13;20.60;;;15.25;;
43933;SDS011;59081;42.706;23.306;2023-05-16T00:40:38;20.55;;;14.55;;
43933;SDS011;59081;42.706;23.306;2023-05-16T00:43:04;22.48;;;14.93;;
43933;SDS011;59081;42.706;23.306;2023-05-16T00:45:30;32.75;;;17.27;;
43933;SDS011;59081;42.706;23.306;2023-05-16T00:47:55;25.88;;;17.25;;
43933;SDS011;59081;42.706;23.306;2023-05-16T00:50:21;21.65;;;15.10;;
43933;SDS011;59081;42.706;23.306;2023-05-16T00:52:47;24.58;;;16.08;;
43933;SDS011;59081;42.706;23.306;2023-05-16T00:55:12;23.23;;;16.58;;
43933;SDS011;59081;42.706;23.306;2023-05-16T00:57:38;23.48;;;17.60;;
43933;SDS011;59081;42.706;23.306;2023-05-16T01:00:07;21.70;;;15.98;;
43933;SDS011;59081;42.706;23.306;2023-05-16T01:02:34;21.38;;;14.77;;
43933;SDS011;59081;42.706;23.306;2023-05-16T01:05:00;20.88;;;15.57;;
43933;SDS011;59081;42.706;23.306;2023-05-16T01:07:29;20.67;;;15.65;;
43933;SDS011;59081;42.706;23.306;2023-05-16T01:09:55;22.13;;;16.33;;
43933;SDS011;59081;42.706;23.306;2023-05-16T01:17:29;20.40;;;15.02;;
43933;SDS011;59081;42.706;23.306;2023-05-16T01:25:26;23.45;;;15.32;;
43933;SDS011;59081;42.706;23.306;2023-05-16T01:27:59;20.23;;;14.32;;
43933;SDS011;59081;42.706;23.306;2023-05-16T01:30:30;24.45;;;15.45;;
43933;SDS011;59081;42.706;23.306;2023-05-16T01:32:57;24.00;;;15.43;;
43933;SDS011;59081;42.706;23.306;2023-05-16T01:35:23;21.30;;;14.77;;
43933;SDS011;59081;42.706;23.306;2023-05-16T01:43:28;20.30;;;14.52;;
43933;SDS011;59081;42.706;23.306;2023-05-16T01:46:08;17.30;;;13.70;;
43933;SDS011;59081;42.706;23.306;2023-05-16T01:49:24;22.83;;;15.18;;
43933;SDS011;59081;42.706;23.306;2023-05-16T01:51:31;21.55;;;15.23;;
43933;SDS011;59081;42.706;23.306;2023-05-16T01:53:59;18.88;;;13.93;;
43933;SDS011;59081;42.706;23.306;2023-05-16T01:56:29;34.15;;;14.10;;
43933;SDS011;59081;42.706;23.306;2023-05-16T01:58:56;20.40;;;13.90;;
43933;SDS011;59081;42.706;23.306;2023-05-16T02:01:23;17.35;;;13.60;;
43933;SDS011;59081;42.706;23.306;2023-05-16T02:03:49;18.73;;;13.05;;
43933;SDS011;59081;42.706;23.306;2023-05-16T02:06:15;15.02;;;13.07;;
43933;SDS011;59081;42.706;23.306;2023-05-16T02:08:41;16.58;;;12.70;;
43933;SDS011;59081;42.706;23.306;2023-05-16T02:11:06;16.77;;;13.10;;
43933;SDS011;59081;42.706;23.306;2023-05-16T02:13:32;18.50;;;13.60;;
43933;SDS011;59081;42.706;23.306;2023-05-16T02:15:57;16.00;;;12.68;;
43933;SDS011;59081;42.706;23.306;2023-05-16T02:18:23;18.83;;;13.15;;
43933;SDS011;59081;42.706;23.306;2023-05-16T02:20:49;17.70;;;12.82;;
43933;SDS011;59081;42.706;23.306;2023-05-16T02:23:15;22.67;;;12.43;;
43933;SDS011;59081;42.706;23.306;2023-05-16T02:25:40;17.83;;;12.18;;
43933;SDS011;59081;42.706;23.306;2023-05-16T02:28:06;14.90;;;12.27;;
43933;SDS011;59081;42.706;23.306;2023-05-16T02:30:31;18.95;;;11.70;;
43933;SDS011;59081;42.706;23.306;2023-05-16T02:32:59;17.20;;;12.23;;
43933;SDS011;59081;42.706;23.306;2023-05-16T02:35:25;15.20;;;11.75;;
43933;SDS011;59081;42.706;23.306;2023-05-16T02:37:50;21.35;;;12.27;;
43933;SDS011;59081;42.706;23.306;2023-05-16T02:40:16;23.40;;;12.90;;
43933;SDS011;59081;42.706;23.306;2023-05-16T02:42:41;19.00;;;12.05;;
43933;SDS011;59081;42.706;23.306;2023-05-16T02:45:07;15.27;;;11.80;;
43933;SDS011;59081;42.706;23.306;2023-05-16T02:47:33;14.88;;;11.70;;
43933;SDS011;59081;42.706;23.306;2023-05-16T02:49:58;17.65;;;12.93;;
43933;SDS011;59081;42.706;23.306;2023-05-16T02:52:28;17.73;;;12.57;;
43933;SDS011;59081;42.706;23.306;2023-05-16T02:54:54;20.13;;;13.18;;
43933;SDS011;59081;42.706;23.306;2023-05-16T02:57:19;14.88;;;11.75;;
43933;SDS011;59081;42.706;23.306;2023-05-16T02:59:45;19.92;;;12.80;;
43933;SDS011;59081;42.706;23.306;2023-05-16T03:02:10;18.50;;;12.73;;
43933;SDS011;59081;42.706;23.306;2023-05-16T03:04:36;16.65;;;10.77;;
43933;SDS011;59081;42.706;23.306;2023-05-16T03:07:01;15.70;;;11.63;;
43933;SDS011;59081;42.706;23.306;2023-05-16T03:09:27;15.05;;;11.18;;
43933;SDS011;59081;42.706;23.306;2023-05-16T03:11:52;20.45;;;11.93;;
43933;SDS011;59081;42.706;23.306;2023-05-16T03:14:18;15.18;;;11.85;;
43933;SDS011;59081;42.706;23.306;2023-05-16T03:16:43;13.63;;;11.55;;
43933;SDS011;59081;42.706;23.306;2023-05-16T03:19:09;19.55;;;11.75;;
43933;SDS011;59081;42.706;23.306;2023-05-16T03:21:35;17.23;;;11.68;;
43933;SDS011;59081;42.706;23.306;2023-05-16T03:24:02;22.02;;;11.95;;
43933;SDS011;59081;42.706;23.306;2023-05-16T03:26:28;15.65;;;11.80;;
43933;SDS011;59081;42.706;23.306;2023-05-16T03:28:53;24.48;;;13.15;;
43933;SDS011;59081;42.706;23.306;2023-05-16T03:31:23;15.27;;;11.48;;
43933;SDS011;59081;42.706;23.306;2023-05-16T03:36:31;18.50;;;12.10;;
43933;SDS011;59081;42.706;23.306;2023-05-16T03:38:57;14.50;;;10.93;;
43933;SDS011;59081;42.706;23.306;2023-05-16T03:41:22;15.88;;;12.13;;
43933;SDS011;59081;42.706;23.306;2023-05-16T03:43:48;17.83;;;11.95;;
43933;SDS011;59081;42.706;23.306;2023-05-16T03:46:13;15.98;;;11.68;;
43933;SDS011;59081;42.706;23.306;2023-05-16T03:48:39;22.60;;;12.05;;
43933;SDS011;59081;42.706;23.306;2023-05-16T03:51:04;16.80;;;11.70;;
43933;SDS011;59081;42.706;23.306;2023-05-16T03:53:30;16.38;;;11.40;;
43933;SDS011;59081;42.706;23.306;2023-05-16T03:55:55;16.35;;;11.40;;
43933;SDS011;59081;42.706;23.306;2023-05-16T03:58:21;17.23;;;13.05;;
43933;SDS011;59081;42.706;23.306;2023-05-16T04:00:52;17.65;;;12.48;;
43933;SDS011;59081;42.706;23.306;2023-05-16T04:03:17;21.33;;;11.15;;
43933;SDS011;59081;42.706;23.306;2023-05-16T04:05:52;18.25;;;12.07;;
43933;SDS011;59081;42.706;23.306;2023-05-16T04:08:18;13.77;;;10.07;;
43933;SDS011;59081;42.706;23.306;2023-05-16T04:10:43;24.77;;;11.50;;
43933;SDS011;59081;42.706;23.306;2023-05-16T04:13:09;14.30;;;9.70;;
43933;SDS011;59081;42.706;23.306;2023-05-16T04:15:34;17.65;;;11.95;;
43933;SDS011;59081;42.706;23.306;2023-05-16T04:18:02;14.63;;;9.75;;
43933;SDS011;59081;42.706;23.306;2023-05-16T04:20:29;17.92;;;12.20;;
43933;SDS011;59081;42.706;23.306;2023-05-16T04:22:54;14.90;;;11.38;;
43933;SDS011;59081;42.706;23.306;2023-05-16T04:25:20;13.38;;;8.90;;
43933;SDS011;59081;42.706;23.306;2023-05-16T04:27:48;19.13;;;10.82;;
43933;SDS011;59081;42.706;23.306;2023-05-16T04:30:14;15.70;;;11.52;;
43933;SDS011;59081;42.706;23.306;2023-05-16T04:32:41;18.52;;;12.43;;
43933;SDS011;59081;42.706;23.306;2023-05-16T04:35:12;13.85;;;8.60;;
43933;SDS011;59081;42.706;23.306;2023-05-16T04:37:38;15.45;;;11.35;;
43933;SDS011;59081;42.706;23.306;2023-05-16T04:40:04;16.40;;;10.50;;
43933;SDS011;59081;42.706;23.306;2023-05-16T04:42:31;16.30;;;12.45;;
43933;SDS011;59081;42.706;23.306;2023-05-16T04:45:02;15.90;;;11.52;;
43933;SDS011;59081;42.706;23.306;2023-05-16T04:47:30;22.25;;;11.93;;
43933;SDS011;59081;42.706;23.306;2023-05-16T04:49:56;17.23;;;12.38;;
43933;SDS011;59081;42.706;23.306;2023-05-16T04:52:22;18.63;;;12.48;;
43933;SDS011;59081;42.706;23.306;2023-05-16T04:54:51;17.55;;;11.15;;
43933;SDS011;59081;42.706;23.306;2023-05-16T04:57:16;18.83;;;11.98;;
43933;SDS011;59081;42.706;23.306;2023-05-16T04:59:41;18.92;;;12.88;;
43933;SDS011;59081;42.706;23.306;2023-05-16T05:02:09;16.80;;;12.30;;
43933;SDS011;59081;42.706;23.306;2023-05-16T05:04:35;21.83;;;14.98;;
43933;SDS011;59081;42.706;23.306;2023-05-16T05:07:00;22.25;;;12.80;;
43933;SDS011;59081;42.706;23.306;2023-05-16T05:09:26;18.05;;;12.95;;
43933;SDS011;59081;42.706;23.306;2023-05-16T05:11:52;19.48;;;12.23;;
43933;SDS011;59081;42.706;23.306;2023-05-16T05:14:17;18.70;;;12.98;;
43933;SDS011;59081;42.706;23.306;2023-05-16T05:16:43;22.42;;;12.75;;
43933;SDS011;59081;42.706;23.306;2023-05-16T05:19:08;19.90;;;13.10;;
43933;SDS011;59081;42.706;23.306;2023-05-16T05:21:34;30.23;;;14.32;;
43933;SDS011;59081;42.706;23.306;2023-05-16T05:24:00;22.23;;;12.10;;
43933;SDS011;59081;42.706;23.306;2023-05-16T05:26:25;21.33;;;12.15;;
43933;SDS011;59081;42.706;23.306;2023-05-16T05:28:52;18.58;;;12.57;;
43933;SDS011;59081;42.706;23.306;2023-05-16T05:31:18;21.33;;;12.50;;
43933;SDS011;59081;42.706;23.306;2023-05-16T05:33:43;18.30;;;13.35;;
43933;SDS011;59081;42.706;23.306;2023-05-16T05:36:09;18.88;;;12.32;;
43933;SDS011;59081;42.706;23.306;2023-05-16T05:38:34;19.75;;;12.15;;
43933;SDS011;59081;42.706;23.306;2023-05-16T05:41:00;20.65;;;12.98;;
43933;SDS011;59081;42.706;23.306;2023-05-16T05:43:25;19.73;;;13.23;;
43933;SDS011;59081;42.706;23.306;2023-05-16T05:45:51;16.55;;;11.50;;
43933;SDS011;59081;42.706;23.306;2023-05-16T05:48:17;18.35;;;12.02;;
43933;SDS011;59081;42.706;23.306;2023-05-16T05:50:43;18.17;;;9.27;;
43933;SDS011;59081;42.706;23.306;2023-05-16T05:53:11;19.30;;;12.10;;
43933;SDS011;59081;42.706;23.306;2023-05-16T05:55:37;16.80;;;11.93;;
43933;SDS011;59081;42.706;23.306;2023-05-16T05:58:02;19.98;;;11.68;;
43933;SDS011;59081;42.706;23.306;2023-05-16T06:00:27;17.25;;;12.82;;
43933;SDS011;59081;42.706;23.306;2023-05-16T06:02:53;16.85;;;11.57;;
43933;SDS011;59081;42.706;23.306;2023-05-16T06:05:19;22.13;;;12.57;;
43933;SDS011;59081;42.706;23.306;2023-05-16T06:07:45;25.30;;;12.75;;
43933;SDS011;59081;42.706;23.306;2023-05-16T06:10:10;18.95;;;11.25;;
43933;SDS011;59081;42.706;23.306;2023-05-16T06:12:36;17.50;;;12.85;;
43933;SDS011;59081;42.706;23.306;2023-05-16T06:15:01;27.02;;;12.45;;
43933;SDS011;59081;42.706;23.306;2023-05-16T06:17:27;19.38;;;13.55;;
43933;SDS011;59081;42.706;23.306;2023-05-16T06:19:53;25.02;;;13.88;;
43933;SDS011;59081;42.706;23.306;2023-05-16T06:22:18;25.23;;;13.98;;
43933;SDS011;59081;42.706;23.306;2023-05-16T06:24:44;18.70;;;9.85;;
43933;SDS011;59081;42.706;23.306;2023-05-16T06:27:09;18.63;;;11.40;;
43933;SDS011;59081;42.706;23.306;2023-05-16T06:29:35;16.77;;;8.23;;
43933;SDS011;59081;42.706;23.306;2023-05-16T06:32:01;12.15;;;7.00;;
43933;SDS011;59081;42.706;23.306;2023-05-16T06:34:26;19.92;;;10.35;;
43933;SDS011;59081;42.706;23.306;2023-05-16T06:36:56;15.85;;;10.32;;
43933;SDS011;59081;42.706;23.306;2023-05-16T06:39:22;12.43;;;8.80;;
43933;SDS011;59081;42.706;23.306;2023-05-16T06:41:47;18.75;;;11.27;;
43933;SDS011;59081;42.706;23.306;2023-05-16T06:44:13;23.67;;;10.55;;
43933;SDS011;59081;42.706;23.306;2023-05-16T06:46:38;22.52;;;11.02;;
43933;SDS011;59081;42.706;23.306;2023-05-16T06:49:04;21.60;;;11.88;;
43933;SDS011;59081;42.706;23.306;2023-05-16T06:51:30;16.98;;;10.93;;
43933;SDS011;59081;42.706;23.306;2023-05-16T06:53:56;23.23;;;11.02;;
43933;SDS011;59081;42.706;23.306;2023-05-16T06:56:22;19.70;;;10.60;;
43933;SDS011;59081;42.706;23.306;2023-05-16T06:58:48;18.88;;;10.43;;
43933;SDS011;59081;42.706;23.306;2023-05-16T07:01:14;16.67;;;10.00;;
43933;SDS011;59081;42.706;23.306;2023-05-16T07:03:40;18.20;;;10.02;;
43933;SDS011;59081;42.706;23.306;2023-05-16T07:06:05;15.82;;;9.68;;
43933;SDS011;59081;42.706;23.306;2023-05-16T07:08:31;20.17;;;10.57;;
43933;SDS011;59081;42.706;23.306;2023-05-16T07:10:59;12.95;;;7.60;;
43933;SDS011;59081;42.706;23.306;2023-05-16T07:13:25;15.93;;;10.98;;
43933;SDS011;59081;42.706;23.306;2023-05-16T07:15:50;20.17;;;10.98;;
43933;SDS011;59081;42.706;23.306;2023-05-16T07:18:16;16.23;;;8.80;;
43933;SDS011;59081;42.706;23.306;2023-05-16T07:20:41;14.13;;;9.70;;
43933;SDS011;59081;42.706;23.306;2023-05-16T07:23:07;9.68;;;6.97;;
43933;SDS011;59081;42.706;23.306;2023-05-16T07:25:32;14.20;;;8.57;;
43933;SDS011;59081;42.706;23.306;2023-05-16T07:27:57;14.68;;;9.85;;
43933;SDS011;59081;42.706;23.306;2023-05-16T07:30:24;13.95;;;7.95;;
43933;SDS011;59081;42.706;23.306;2023-05-16T07:32:50;14.40;;;8.40;;
43933;SDS011;59081;42.706;23.306;2023-05-16T07:35:15;12.75;;;7.80;;
43933;SDS011;59081;42.706;23.306;2023-05-16T07:37:41;13.63;;;9.73;;
43933;SDS011;59081;42.706;23.306;2023-05-16T07:40:07;10.57;;;6.65;;
43933;SDS011;59081;42.706;23.306;2023-05-16T07:42:34;14.50;;;8.40;;
43933;SDS011;59081;42.706;23.306;2023-05-16T07:44:59;13.25;;;8.40;;
43933;SDS011;59081;42.706;23.306;2023-05-16T07:47:26;13.77;;;7.78;;
43933;SDS011;59081;42.706;23.306;2023-05-16T07:49:51;13.10;;;8.18;;
43933;SDS011;59081;42.706;23.306;2023-05-16T07:52:17;18.55;;;9.30;;
43933;SDS011;59081;42.706;23.306;2023-05-16T07:54:44;10.68;;;7.18;;
43933;SDS011;59081;42.706;23.306;2023-05-16T07:57:10;19.27;;;8.88;;
43933;SDS011;59081;42.706;23.306;2023-05-16T07:59:36;6.47;;;5.53;;
43933;SDS011;59081;42.706;23.306;2023-05-16T08:02:01;12.43;;;8.25;;
43933;SDS011;59081;42.706;23.306;2023-05-16T08:04:27;13.95;;;8.35;;
43933;SDS011;59081;42.706;23.306;2023-05-16T08:06:52;18.20;;;10.27;;
43933;SDS011;59081;42.706;23.306;2023-05-16T08:09:18;18.42;;;8.68;;
43933;SDS011;59081;42.706;23.306;2023-05-16T08:11:43;21.73;;;8.73;;
43933;SDS011;59081;42.706;23.306;2023-05-16T08:14:10;14.45;;;7.07;;
43933;SDS011;59081;42.706;23.306;2023-05-16T08:16:36;11.43;;;6.15;;
43933;SDS011;59081;42.706;23.306;2023-05-16T08:19:01;12.13;;;7.85;;
43933;SDS011;59081;42.706;23.306;2023-05-16T08:21:26;11.30;;;7.75;;
43933;SDS011;59081;42.706;23.306;2023-05-16T08:23:52;13.55;;;8.02;;
43933;SDS011;59081;42.706;23.306;2023-05-16T08:26:18;20.33;;;8.60;;
43933;SDS011;59081;42.706;23.306;2023-05-16T08:28:43;12.57;;;9.30;;
43933;SDS011;59081;42.706;23.306;2023-05-16T08:31:09;14.02;;;8.32;;
43933;SDS011;59081;42.706;23.306;2023-05-16T08:33:35;13.30;;;8.07;;
43933;SDS011;59081;42.706;23.306;2023-05-16T08:36:00;14.52;;;8.75;;
43933;SDS011;59081;42.706;23.306;2023-05-16T08:38:26;14.05;;;9.25;;
43933;SDS011;59081;42.706;23.306;2023-05-16T08:40:51;17.00;;;8.10;;
43933;SDS011;59081;42.706;23.306;2023-05-16T08:43:17;30.52;;;9.95;;
43933;SDS011;59081;42.706;23.306;2023-05-16T08:45:42;19.38;;;9.48;;
43933;SDS011;59081;42.706;23.306;2023-05-16T08:48:08;15.93;;;8.35;;
43933;SDS011;59081;42.706;23.306;2023-05-16T08:50:35;18.00;;;7.68;;
43933;SDS011;59081;42.706;23.306;2023-05-16T08:53:03;18.13;;;8.35;;
43933;SDS011;59081;42.706;23.306;2023-05-16T08:55:31;15.18;;;7.30;;
43933;SDS011;59081;42.706;23.306;2023-05-16T08:57:57;9.38;;;5.97;;
43933;SDS011;59081;42.706;23.306;2023-05-16T09:00:23;9.02;;;5.60;;
43933;SDS011;59081;42.706;23.306;2023-05-16T09:02:50;19.73;;;7.35;;
43933;SDS011;59081;42.706;23.306;2023-05-16T09:05:16;13.77;;;6.90;;
43933;SDS011;59081;42.706;23.306;2023-05-16T09:07:41;10.73;;;5.13;;
43933;SDS011;59081;42.706;23.306;2023-05-16T09:10:08;17.80;;;6.80;;
43933;SDS011;59081;42.706;23.306;2023-05-16T09:12:35;12.68;;;8.10;;
43933;SDS011;59081;42.706;23.306;2023-05-16T09:15:01;6.60;;;3.83;;
43933;SDS011;59081;42.706;23.306;2023-05-16T09:17:35;9.63;;;6.18;;
43933;SDS011;59081;42.706;23.306;2023-05-16T09:22:35;10.80;;;7.45;;
43933;SDS011;59081;42.706;23.306;2023-05-16T09:25:01;10.57;;;4.93;;
43933;SDS011;59081;42.706;23.306;2023-05-16T09:27:29;13.73;;;8.40;;
43933;SDS011;59081;42.706;23.306;2023-05-16T09:29:56;9.25;;;6.70;;
43933;SDS011;59081;42.706;23.306;2023-05-16T09:32:22;10.35;;;6.43;;
43933;SDS011;59081;42.706;23.306;2023-05-16T09:34:48;12.90;;;7.38;;
43933;SDS011;59081;42.706;23.306;2023-05-16T09:37:15;7.25;;;5.55;;
43933;SDS011;59081;42.706;23.306;2023-05-16T09:39:51;18.23;;;8.25;;
43933;SDS011;59081;42.706;23.306;2023-05-16T09:42:19;14.90;;;7.03;;
43933;SDS011;59081;42.706;23.306;2023-05-16T09:44:45;6.05;;;3.92;;
43933;SDS011;59081;42.706;23.306;2023-05-16T09:47:16;11.90;;;6.68;;
43933;SDS011;59081;42.706;23.306;2023-05-16T09:49:43;15.77;;;7.90;;
43933;SDS011;59081;42.706;23.306;2023-05-16T09:52:10;18.00;;;6.35;;
43933;SDS011;59081;42.706;23.306;2023-05-16T09:54:37;15.57;;;7.63;;
43933;SDS011;59081;42.706;23.306;2023-05-16T09:57:02;8.38;;;6.50;;
43933;SDS011;59081;42.706;23.306;2023-05-16T09:59:28;14.98;;;8.32;;
43933;SDS011;59081;42.706;23.306;2023-05-16T10:01:56;9.95;;;3.22;;
43933;SDS011;59081;42.706;23.306;2023-05-16T10:04:25;12.13;;;7.63;;
43933;SDS011;59081;42.706;23.306;2023-05-16T10:06:51;7.60;;;5.30;;
43933;SDS011;59081;42.706;23.306;2023-05-16T10:09:20;14.38;;;6.82;;
43933;SDS011;59081;42.706;23.306;2023-05-16T10:11:47;10.88;;;7.45;;
43933;SDS011;59081;42.706;23.306;2023-05-16T10:14:12;4.78;;;3.40;;
43933;SDS011;59081;42.706;23.306;2023-05-16T10:16:42;9.73;;;6.13;;
43933;SDS011;59081;42.706;23.306;2023-05-16T10:19:08;7.82;;;4.82;;
43933;SDS011;59081;42.706;23.306;2023-05-16T10:21:36;6.80;;;4.18;;
43933;SDS011;59081;42.706;23.306;2023-05-16T10:24:05;14.57;;;7.28;;
43933;SDS011;59081;42.706;23.306;2023-05-16T10:26:35;8.25;;;5.88;;
43933;SDS011;59081;42.706;23.306;2023-05-16T10:29:00;12.80;;;7.15;;
43933;SDS011;59081;42.706;23.306;2023-05-16T10:31:27;5.75;;;4.93;;
43933;SDS011;59081;42.706;23.306;2023-05-16T10:33:53;10.93;;;5.10;;
43933;SDS011;59081;42.706;23.306;2023-05-16T10:36:21;10.68;;;5.65;;
43933;SDS011;59081;42.706;23.306;2023-05-16T10:38:47;14.90;;;7.93;;
43933;SDS011;59081;42.706;23.306;2023-05-16T10:41:13;16.40;;;7.30;;
43933;SDS011;59081;42.706;23.306;2023-05-16T10:43:39;15.90;;;7.07;;
43933;SDS011;59081;42.706;23.306;2023-05-16T10:46:09;16.85;;;8.15;;
43933;SDS011;59081;42.706;23.306;2023-05-16T10:48:36;16.63;;;8.45;;
43933;SDS011;59081;42.706;23.306;2023-05-16T10:53:46;14.88;;;7.15;;
43933;SDS011;59081;42.706;23.306;2023-05-16T10:56:11;15.20;;;7.78;;
43933;SDS011;59081;42.706;23.306;2023-05-16T11:04:09;14.85;;;8.30;;
43933;SDS011;59081;42.706;23.306;2023-05-16T11:14:24;19.77;;;8.23;;
43933;SDS011;59081;42.706;23.306;2023-05-16T11:17:09;10.77;;;7.57;;
43933;SDS011;59081;42.706;23.306;2023-05-16T11:19:44;13.50;;;7.05;;
43933;SDS011;59081;42.706;23.306;2023-05-16T11:24:50;18.55;;;8.35;;
43933;SDS011;59081;42.706;23.306;2023-05-16T11:27:30;21.13;;;8.68;;
43933;SDS011;59081;42.706;23.306;2023-05-16T11:30:18;14.93;;;8.50;;
43933;SDS011;59081;42.706;23.306;2023-05-16T11:32:44;17.08;;;8.18;;
43933;SDS011;59081;42.706;23.306;2023-05-16T11:35:14;16.33;;;8.23;;
43933;SDS011;59081;42.706;23.306;2023-05-16T11:37:41;18.10;;;9.13;;
43933;SDS011;59081;42.706;23.306;2023-05-16T11:40:09;18.67;;;8.70;;
43933;SDS011;59081;42.706;23.306;2023-05-16T11:42:40;13.15;;;8.02;;
43933;SDS011;59081;42.706;23.306;2023-05-16T11:45:08;15.82;;;8.52;;
43933;SDS011;59081;42.706;23.306;2023-05-16T11:47:36;21.33;;;8.85;;
43933;SDS011;59081;42.706;23.306;2023-05-16T11:50:04;13.13;;;8.55;;
43933;SDS011;59081;42.706;23.306;2023-05-16T11:52:31;19.10;;;9.32;;
43933;SDS011;59081;42.706;23.306;2023-05-16T11:54:57;16.25;;;8.63;;
43933;SDS011;59081;42.706;23.306;2023-05-16T11:57:25;18.27;;;8.82;;
43933;SDS011;59081;42.706;23.306;2023-05-16T11:59:51;13.00;;;8.32;;
43933;SDS011;59081;42.706;23.306;2023-05-16T12:02:18;15.80;;;8.25;;
43933;SDS011;59081;42.706;23.306;2023-05-16T12:04:45;18.05;;;8.25;;
43933;SDS011;59081;42.706;23.306;2023-05-16T12:07:11;16.17;;;8.50;;
43933;SDS011;59081;42.706;23.306;2023-05-16T12:09:37;20.25;;;8.93;;
43933;SDS011;59081;42.706;23.306;2023-05-16T12:12:03;17.63;;;8.57;;
43933;SDS011;59081;42.706;23.306;2023-05-16T12:14:30;12.07;;;8.27;;
43933;SDS011;59081;42.706;23.306;2023-05-16T12:16:56;17.67;;;9.05;;
43933;SDS011;59081;42.706;23.306;2023-05-16T12:19:22;16.63;;;7.88;;
43933;SDS011;59081;42.706;23.306;2023-05-16T12:21:51;19.63;;;7.40;;
43933;SDS011;59081;42.706;23.306;2023-05-16T12:24:18;14.55;;;7.40;;
43933;SDS011;59081;42.706;23.306;2023-05-16T12:26:43;14.18;;;7.00;;
43933;SDS011;59081;42.706;23.306;2023-05-16T12:29:09;16.55;;;8.07;;
43933;SDS011;59081;42.706;23.306;2023-05-16T12:31:35;13.75;;;7.43;;
43933;SDS011;59081;42.706;23.306;2023-05-16T12:34:03;17.35;;;7.65;;
43933;SDS011;59081;42.706;23.306;2023-05-16T12:36:32;19.92;;;9.05;;
43933;SDS011;59081;42.706;23.306;2023-05-16T12:39:02;12.60;;;7.00;;
43933;SDS011;59081;42.706;23.306;2023-05-16T12:41:28;21.23;;;7.95;;
43933;SDS011;59081;42.706;23.306;2023-05-16T12:44:11;12.55;;;6.43;;
43933;SDS011;59081;42.706;23.306;2023-05-16T12:46:42;10.38;;;6.68;;
43933;SDS011;59081;42.706;23.306;2023-05-16T12:49:09;12.88;;;7.68;;
43933;SDS011;59081;42.706;23.306;2023-05-16T12:51:35;12.80;;;7.28;;
43933;SDS011;59081;42.706;23.306;2023-05-16T12:54:10;13.85;;;7.30;;
43933;SDS011;59081;42.706;23.306;2023-05-16T12:56:45;17.42;;;8.25;;
43933;SDS011;59081;42.706;23.306;2023-05-16T12:59:10;17.73;;;7.90;;
43933;SDS011;59081;42.706;23.306;2023-05-16T13:01:36;18.10;;;8.23;;
43933;SDS011;59081;42.706;23.306;2023-05-16T13:04:02;14.10;;;8.18;;
43933;SDS011;59081;42.706;23.306;2023-05-16T13:06:28;12.15;;;7.88;;
43933;SDS011;59081;42.706;23.306;2023-05-16T13:08:54;11.57;;;7.57;;
43933;SDS011;59081;42.706;23.306;2023-05-16T13:11:20;10.13;;;7.40;;
43933;SDS011;59081;42.706;23.306;2023-05-16T13:13:46;17.75;;;8.32;;
43933;SDS011;59081;42.706;23.306;2023-05-16T13:16:11;18.38;;;7.18;;
43933;SDS011;59081;42.706;23.306;2023-05-16T13:18:36;21.10;;;9.07;;
43933;SDS011;59081;42.706;23.306;2023-05-16T13:21:02;14.95;;;8.15;;
43933;SDS011;59081;42.706;23.306;2023-05-16T13:23:28;14.60;;;8.68;;
43933;SDS011;59081;42.706;23.306;2023-05-16T13:25:54;18.65;;;8.32;;
43933;SDS011;59081;42.706;23.306;2023-05-16T13:28:20;15.23;;;8.30;;
43933;SDS011;59081;42.706;23.306;2023-05-16T13:30:45;16.90;;;8.68;;
43933;SDS011;59081;42.706;23.306;2023-05-16T13:33:11;16.65;;;8.82;;
43933;SDS011;59081;42.706;23.306;2023-05-16T13:35:37;16.65;;;8.45;;
43933;SDS011;59081;42.706;23.306;2023-05-16T13:38:02;16.08;;;9.30;;
43933;SDS011;59081;42.706;23.306;2023-05-16T13:40:28;15.23;;;8.07;;
43933;SDS011;59081;42.706;23.306;2023-05-16T13:42:54;15.00;;;7.93;;
43933;SDS011;59081;42.706;23.306;2023-05-16T13:45:21;17.33;;;8.43;;
43933;SDS011;59081;42.706;23.306;2023-05-16T13:47:46;20.10;;;8.80;;
43933;SDS011;59081;42.706;23.306;2023-05-16T13:50:12;13.68;;;8.30;;
43933;SDS011;59081;42.706;23.306;2023-05-16T13:52:37;15.70;;;7.78;;
43933;SDS011;59081;42.706;23.306;2023-05-16T13:55:03;14.70;;;8.82;;
43933;SDS011;59081;42.706;23.306;2023-05-16T13:57:29;21.10;;;8.77;;
43933;SDS011;59081;42.706;23.306;2023-05-16T13:59:55;15.75;;;9.00;;
43933;SDS011;59081;42.706;23.306;2023-05-16T14:02:20;16.58;;;9.10;;
43933;SDS011;59081;42.706;23.306;2023-05-16T14:04:46;18.35;;;8.73;;
43933;SDS011;59081;42.706;23.306;2023-05-16T14:07:12;17.67;;;8.13;;
43933;SDS011;59081;42.706;23.306;2023-05-16T14:09:37;11.45;;;8.60;;
43933;SDS011;59081;42.706;23.306;2023-05-16T14:12:06;17.60;;;8.13;;
43933;SDS011;59081;42.706;23.306;2023-05-16T14:14:35;20.10;;;8.52;;
43933;SDS011;59081;42.706;23.306;2023-05-16T14:17:01;19.42;;;8.90;;
43933;SDS011;59081;42.706;23.306;2023-05-16T14:19:28;27.85;;;11.65;;
43933;SDS011;59081;42.706;23.306;2023-05-16T14:21:53;17.02;;;10.23;;
43933;SDS011;59081;42.706;23.306;2023-05-16T14:24:19;22.80;;;12.18;;
43933;SDS011;59081;42.706;23.306;2023-05-16T14:26:45;22.92;;;11.18;;
43933;SDS011;59081;42.706;23.306;2023-05-16T14:29:11;22.30;;;11.60;;
43933;SDS011;59081;42.706;23.306;2023-05-16T14:31:37;19.98;;;12.32;;
43933;SDS011;59081;42.706;23.306;2023-05-16T14:34:03;19.30;;;12.10;;
43933;SDS011;59081;42.706;23.306;2023-05-16T14:36:28;25.00;;;11.43;;
43933;SDS011;59081;42.706;23.306;2023-05-16T14:38:54;19.70;;;11.88;;
43933;SDS011;59081;42.706;23.306;2023-05-16T14:41:20;22.92;;;13.20;;
43933;SDS011;59081;42.706;23.306;2023-05-16T14:43:46;24.88;;;13.02;;
43933;SDS011;59081;42.706;23.306;2023-05-16T14:46:12;23.08;;;12.70;;
43933;SDS011;59081;42.706;23.306;2023-05-16T14:48:37;21.08;;;11.32;;
43933;SDS011;59081;42.706;23.306;2023-05-16T14:51:03;24.42;;;11.30;;
43933;SDS011;59081;42.706;23.306;2023-05-16T14:53:29;19.73;;;12.68;;